Caneli — 2BHE7 — position and weather

sailwx.info

Track history (hours):
 
Tides and Currents Weather Stations Pressure Air Temp Water Temp Dewpoint Dewpoint Depression Visibility Wind Speed Wind Dir Waves Ship Positions

Caneli

Last reported at 2014-Jul-22 04:31 UTC. Time now 2014-Jul-23 01:14 UTC.
Position N 40°45' W 074°01'.

Length 43 m; draft 3 m.

Type: Pleasure craft. MMSI: 235065392.

Date/timePositionNaut miles runAvg speedWind from/ knotsBaromVisibWave heightAir tempDewpointWater temp
2014-Jul-22 04:31N 40°45' W 074°01'0 0.0
2014-Jul-22 03:31N 40°45' W 074°01'0 0.0
2014-Jul-21 20:25N 40°45' W 074°01'0 0.0
2014-Jul-20 17:12N 40°45' W 074°01'0 0.0
2014-Jul-20 16:32N 40°45' W 074°01'3 3.0
2014-Jul-20 15:33N 40°42' W 074°02'6 6.2
2014-Jul-20 14:33N 40°36' W 074°02'7 7.2
2014-Jul-20 13:31N 40°30' W 073°56'33 6.6
2014-Jul-20 08:34N 39°59' W 073°41'21 5.1
2014-Jul-20 04:22N 39°38' W 073°46'9 4.8
2014-Jul-20 02:33N 39°32' W 073°54'6 4.7
2014-Jul-20 01:16N 39°27' W 073°59'3 4.2
2014-Jul-20 00:26N 39°25' W 074°02'  
2014-Jul-17 11:17N 39°23' W 074°26'0 0.0
2014-Jul-17 02:23N 39°23' W 074°26'0 0.0
2014-Jul-17 01:17N 39°23' W 074°26'0 0.0
2014-Jul-16 23:20N 39°23' W 074°26'  
2014-Jul-14 00:23N 39°23' W 074°26'0 0.0
2014-Jul-13 22:32N 39°23' W 074°26'0 0.0
2014-Jul-13 21:32N 39°23' W 074°26'0 0.0
2014-Jul-13 16:26N 39°23' W 074°26'0 0.0
2014-Jul-13 13:32N 39°23' W 074°26'0 0.0
2014-Jul-13 12:11N 39°23' W 074°26'0 0.0
2014-Jul-13 11:33N 39°23' W 074°26'0 0.0
2014-Jul-13 10:29N 39°23' W 074°26'0 0.0
2014-Jul-13 09:32N 39°23' W 074°26'0 0.0
2014-Jul-13 08:27N 39°23' W 074°26'0 0.0
2014-Jul-13 07:23N 39°23' W 074°26'0 0.0
2014-Jul-13 06:30N 39°23' W 074°26'0 0.0
2014-Jul-13 05:19N 39°23' W 074°26'0 0.0
2014-Jul-13 04:27N 39°23' W 074°26'0 0.0
2014-Jul-13 03:32N 39°23' W 074°26'0 0.0
2014-Jul-13 02:32N 39°23' W 074°26'0 0.0
2014-Jul-13 01:31N 39°23' W 074°26'0 0.0
2014-Jul-13 00:29N 39°23' W 074°26'0 0.0
2014-Jul-12 23:28N 39°23' W 074°26'4 4.3
2014-Jul-12 22:33N 39°20' W 074°23'1010.1
2014-Jul-12 21:33N 39°12' W 074°14'9 9.5
2014-Jul-12 20:33N 39°03' W 074°13'1010.3
2014-Jul-12 19:33N 38°53' W 074°17'1010.0
2014-Jul-12 18:33N 38°43' W 074°21'24 9.8
2014-Jul-12 16:07N 38°20' W 074°29'5 9.8
2014-Jul-12 15:33N 38°15' W 074°31'1010.1
2014-Jul-12 14:34N 38°05' W 074°34'19 9.7
2014-Jul-12 12:33N 37°48' W 074°46'1110.2
2014-Jul-12 11:29N 37°40' W 074°56'9 9.9
2014-Jul-12 10:33N 37°34' W 075°04'51 9.8
2014-Jul-12 05:22N 36°57' W 075°48'911.0
2014-Jul-12 04:33N 36°58' W 075°59'  
Track history (hours):
 
Tides and Currents Weather Stations Pressure Air Temp Water Temp Dewpoint Dewpoint Depression Visibility Wind Speed Wind Dir Waves Ship Positions

Caneli

Last reported at 2014-Jul-22 04:31 UTC. Time now 2014-Jul-23 01:14 UTC.
Position N 40°45' W 074°01'.

Length 43 m; draft 3 m.

Type: Pleasure craft. MMSI: 235065392.

Date/timePositionNaut miles runAvg speedWind from/ knotsBaromVisibWave heightAir tempDewpointWater temp
2014-Jul-22 04:31N 40°45' W 074°01'0 0.0
2014-Jul-22 03:31N 40°45' W 074°01'0 0.0
2014-Jul-21 20:25N 40°45' W 074°01'0 0.0
2014-Jul-20 17:12N 40°45' W 074°01'0 0.0
2014-Jul-20 16:32N 40°45' W 074°01'3 3.0
2014-Jul-20 15:33N 40°42' W 074°02'6 6.2
2014-Jul-20 14:33N 40°36' W 074°02'7 7.2
2014-Jul-20 13:31N 40°30' W 073°56'33 6.6
2014-Jul-20 08:34N 39°59' W 073°41'21 5.1
2014-Jul-20 04:22N 39°38' W 073°46'9 4.8
2014-Jul-20 02:33N 39°32' W 073°54'6 4.7
2014-Jul-20 01:16N 39°27' W 073°59'3 4.2
2014-Jul-20 00:26N 39°25' W 074°02'  
2014-Jul-17 11:17N 39°23' W 074°26'0 0.0
2014-Jul-17 02:23N 39°23' W 074°26'0 0.0
2014-Jul-17 01:17N 39°23' W 074°26'0 0.0
2014-Jul-16 23:20N 39°23' W 074°26'  
2014-Jul-14 00:23N 39°23' W 074°26'0 0.0
2014-Jul-13 22:32N 39°23' W 074°26'0 0.0
2014-Jul-13 21:32N 39°23' W 074°26'0 0.0
2014-Jul-13 16:26N 39°23' W 074°26'0 0.0
2014-Jul-13 13:32N 39°23' W 074°26'0 0.0
2014-Jul-13 12:11N 39°23' W 074°26'0 0.0
2014-Jul-13 11:33N 39°23' W 074°26'0 0.0
2014-Jul-13 10:29N 39°23' W 074°26'0 0.0
2014-Jul-13 09:32N 39°23' W 074°26'0 0.0
2014-Jul-13 08:27N 39°23' W 074°26'0 0.0
2014-Jul-13 07:23N 39°23' W 074°26'0 0.0
2014-Jul-13 06:30N 39°23' W 074°26'0 0.0
2014-Jul-13 05:19N 39°23' W 074°26'0 0.0
2014-Jul-13 04:27N 39°23' W 074°26'0 0.0
2014-Jul-13 03:32N 39°23' W 074°26'0 0.0
2014-Jul-13 02:32N 39°23' W 074°26'0 0.0
2014-Jul-13 01:31N 39°23' W 074°26'0 0.0
2014-Jul-13 00:29N 39°23' W 074°26'0 0.0
2014-Jul-12 23:28N 39°23' W 074°26'4 4.3
2014-Jul-12 22:33N 39°20' W 074°23'1010.1
2014-Jul-12 21:33N 39°12' W 074°14'9 9.5
2014-Jul-12 20:33N 39°03' W 074°13'1010.3
2014-Jul-12 19:33N 38°53' W 074°17'1010.0
2014-Jul-12 18:33N 38°43' W 074°21'24 9.8
2014-Jul-12 16:07N 38°20' W 074°29'5 9.8
2014-Jul-12 15:33N 38°15' W 074°31'1010.1
2014-Jul-12 14:34N 38°05' W 074°34'19 9.7
2014-Jul-12 12:33N 37°48' W 074°46'1110.2
2014-Jul-12 11:29N 37°40' W 074°56'9 9.9
2014-Jul-12 10:33N 37°34' W 075°04'51 9.8
2014-Jul-12 05:22N 36°57' W 075°48'911.0
2014-Jul-12 04:33N 36°58' W 075°59'  

Dump ship's entire track history